sensor_id;sensor_type;location;lat;lon;timestamp;pressure;altitude;pressure_sealevel;temperature;humidity
10706;BME280;5404;42.656;23.336;2023-03-01T00:02:08;95392.72;;;6.38;100.00
10706;BME280;5404;42.656;23.336;2023-03-01T00:04:33;95411.63;;;6.52;100.00
10706;BME280;5404;42.656;23.336;2023-03-01T00:07:00;95416.16;;;6.51;100.00
10706;BME280;5404;42.656;23.336;2023-03-01T00:09:26;95410.31;;;6.49;100.00
10706;BME280;5404;42.656;23.336;2023-03-01T00:11:51;95405.53;;;6.46;100.00
10706;BME280;5404;42.656;23.336;2023-03-01T00:14:18;95402.28;;;6.39;100.00
10706;BME280;5404;42.656;23.336;2023-03-01T00:16:44;95408.66;;;6.43;100.00
10706;BME280;5404;42.656;23.336;2023-03-01T00:19:14;95390.38;;;6.42;100.00
10706;BME280;5404;42.656;23.336;2023-03-01T00:21:40;95366.72;;;6.25;100.00
10706;BME280;5404;42.656;23.336;2023-03-01T00:24:08;95395.94;;;6.40;100.00
10706;BME280;5404;42.656;23.336;2023-03-01T00:26:34;95371.78;;;6.32;100.00
10706;BME280;5404;42.656;23.336;2023-03-01T00:29:00;95331.97;;;6.12;100.00
10706;BME280;5404;42.656;23.336;2023-03-01T00:31:28;95367.03;;;6.34;100.00
10706;BME280;5404;42.656;23.336;2023-03-01T00:33:59;95377.91;;;6.37;100.00
10706;BME280;5404;42.656;23.336;2023-03-01T00:36:36;95372.38;;;6.39;100.00
10706;BME280;5404;42.656;23.336;2023-03-01T00:39:07;95368.69;;;6.40;100.00
10706;BME280;5404;42.656;23.336;2023-03-01T00:41:34;95370.53;;;6.39;100.00
10706;BME280;5404;42.656;23.336;2023-03-01T00:44:00;95370.25;;;6.36;100.00
10706;BME280;5404;42.656;23.336;2023-03-01T00:46:26;95351.97;;;6.34;100.00
10706;BME280;5404;42.656;23.336;2023-03-01T00:48:53;95360.47;;;6.36;100.00
10706;BME280;5404;42.656;23.336;2023-03-01T00:51:21;95365.19;;;6.34;100.00
10706;BME280;5404;42.656;23.336;2023-03-01T00:53:50;95362.53;;;6.29;100.00
10706;BME280;5404;42.656;23.336;2023-03-01T00:56:17;95362.78;;;6.28;100.00
10706;BME280;5404;42.656;23.336;2023-03-01T00:58:43;95365.13;;;6.24;100.00
10706;BME280;5404;42.656;23.336;2023-03-01T01:01:11;95365.34;;;6.23;100.00
10706;BME280;5404;42.656;23.336;2023-03-01T01:06:19;95362.50;;;6.24;100.00
10706;BME280;5404;42.656;23.336;2023-03-01T01:08:46;95290.16;;;5.82;100.00
10706;BME280;5404;42.656;23.336;2023-03-01T01:11:12;95336.22;;;6.18;100.00
10706;BME280;5404;42.656;23.336;2023-03-01T01:13:38;95353.44;;;6.20;100.00
10706;BME280;5404;42.656;23.336;2023-03-01T01:16:05;95352.88;;;6.13;100.00
10706;BME280;5404;42.656;23.336;2023-03-01T01:18:31;95356.06;;;6.15;100.00
10706;BME280;5404;42.656;23.336;2023-03-01T01:20:57;95342.22;;;6.03;100.00
10706;BME280;5404;42.656;23.336;2023-03-01T01:23:23;95358.66;;;6.10;100.00
10706;BME280;5404;42.656;23.336;2023-03-01T01:25:48;95327.81;;;5.89;100.00
10706;BME280;5404;42.656;23.336;2023-03-01T01:28:14;95338.47;;;5.99;100.00
10706;BME280;5404;42.656;23.336;2023-03-01T01:30:39;95320.94;;;5.88;100.00
10706;BME280;5404;42.656;23.336;2023-03-01T01:33:04;95351.97;;;6.03;100.00
10706;BME280;5404;42.656;23.336;2023-03-01T01:35:31;95352.78;;;6.03;100.00
10706;BME280;5404;42.656;23.336;2023-03-01T01:37:57;95347.16;;;5.95;100.00
10706;BME280;5404;42.656;23.336;2023-03-01T01:40:22;95368.16;;;6.06;100.00
10706;BME280;5404;42.656;23.336;2023-03-01T01:42:48;95327.25;;;5.87;100.00
10706;BME280;5404;42.656;23.336;2023-03-01T01:45:34;95362.31;;;6.04;100.00
10706;BME280;5404;42.656;23.336;2023-03-01T01:48:07;95361.53;;;6.04;100.00
10706;BME280;5404;42.656;23.336;2023-03-01T01:50:38;95356.72;;;6.01;100.00
10706;BME280;5404;42.656;23.336;2023-03-01T01:53:08;95354.84;;;5.96;100.00
10706;BME280;5404;42.656;23.336;2023-03-01T01:55:36;95349.81;;;5.95;100.00
10706;BME280;5404;42.656;23.336;2023-03-01T01:58:04;95349.84;;;6.00;100.00
10706;BME280;5404;42.656;23.336;2023-03-01T02:00:32;95350.88;;;5.99;100.00
10706;BME280;5404;42.656;23.336;2023-03-01T02:03:19;95341.66;;;6.01;100.00
10706;BME280;5404;42.656;23.336;2023-03-01T02:06:03;95342.72;;;6.00;100.00
10706;BME280;5404;42.656;23.336;2023-03-01T02:08:31;95329.19;;;5.97;100.00
10706;BME280;5404;42.656;23.336;2023-03-01T02:11:00;95332.19;;;6.05;100.00
10706;BME280;5404;42.656;23.336;2023-03-01T02:13:27;95333.50;;;6.08;100.00
10706;BME280;5404;42.656;23.336;2023-03-01T02:15:53;95325.56;;;6.08;100.00
10706;BME280;5404;42.656;23.336;2023-03-01T02:18:21;95338.53;;;6.09;100.00
10706;BME280;5404;42.656;23.336;2023-03-01T02:23:31;95332.25;;;6.15;100.00
10706;BME280;5404;42.656;23.336;2023-03-01T02:26:09;95343.13;;;6.19;100.00
10706;BME280;5404;42.656;23.336;2023-03-01T02:28:40;95325.91;;;6.16;100.00
10706;BME280;5404;42.656;23.336;2023-03-01T02:31:10;95327.75;;;6.16;100.00
10706;BME280;5404;42.656;23.336;2023-03-01T02:33:57;95338.34;;;6.16;100.00
10706;BME280;5404;42.656;23.336;2023-03-01T02:36:29;95333.28;;;6.14;100.00
10706;BME280;5404;42.656;23.336;2023-03-01T02:38:57;95347.56;;;6.13;100.00
10706;BME280;5404;42.656;23.336;2023-03-01T02:41:31;95340.69;;;6.12;100.00
10706;BME280;5404;42.656;23.336;2023-03-01T02:43:57;95355.75;;;6.12;100.00
10706;BME280;5404;42.656;23.336;2023-03-01T02:46:24;95340.94;;;6.11;100.00
10706;BME280;5404;42.656;23.336;2023-03-01T02:48:55;95348.63;;;6.12;100.00
10706;BME280;5404;42.656;23.336;2023-03-01T02:51:42;95342.78;;;6.10;100.00
10706;BME280;5404;42.656;23.336;2023-03-01T02:56:58;95333.72;;;6.01;100.00
10706;BME280;5404;42.656;23.336;2023-03-01T02:59:28;95345.94;;;6.07;100.00
10706;BME280;5404;42.656;23.336;2023-03-01T03:01:54;95347.53;;;6.08;100.00
10706;BME280;5404;42.656;23.336;2023-03-01T03:04:20;95341.19;;;6.09;100.00
10706;BME280;5404;42.656;23.336;2023-03-01T03:06:48;95332.94;;;6.06;100.00
10706;BME280;5404;42.656;23.336;2023-03-01T03:09:16;95342.84;;;6.15;100.00
10706;BME280;5404;42.656;23.336;2023-03-01T03:11:43;95342.84;;;6.15;100.00
10706;BME280;5404;42.656;23.336;2023-03-01T03:14:12;95343.16;;;6.24;100.00
10706;BME280;5404;42.656;23.336;2023-03-01T03:16:49;95344.47;;;6.26;100.00
10706;BME280;5404;42.656;23.336;2023-03-01T03:19:16;95342.59;;;6.22;100.00
10706;BME280;5404;42.656;23.336;2023-03-01T03:21:43;95348.72;;;6.22;100.00
10706;BME280;5404;42.656;23.336;2023-03-01T03:24:09;95350.25;;;6.18;100.00
10706;BME280;5404;42.656;23.336;2023-03-01T03:26:34;95343.56;;;6.11;100.00
10706;BME280;5404;42.656;23.336;2023-03-01T03:29:01;95356.88;;;6.16;100.00
10706;BME280;5404;42.656;23.336;2023-03-01T03:31:26;95349.16;;;6.14;100.00
10706;BME280;5404;42.656;23.336;2023-03-01T03:33:52;95356.06;;;6.15;100.00
10706;BME280;5404;42.656;23.336;2023-03-01T03:36:22;95357.66;;;6.16;100.00
10706;BME280;5404;42.656;23.336;2023-03-01T03:38:48;95320.44;;;5.91;100.00
10706;BME280;5404;42.656;23.336;2023-03-01T03:41:15;95361.59;;;6.14;100.00
10706;BME280;5404;42.656;23.336;2023-03-01T03:43:59;95351.28;;;6.12;100.00
10706;BME280;5404;42.656;23.336;2023-03-01T03:46:24;95362.91;;;6.11;100.00
10706;BME280;5404;42.656;23.336;2023-03-01T03:48:51;95350.16;;;6.03;100.00
10706;BME280;5404;42.656;23.336;2023-03-01T03:51:17;95364.72;;;6.11;100.00
10706;BME280;5404;42.656;23.336;2023-03-01T03:53:45;95354.41;;;6.09;100.00
10706;BME280;5404;42.656;23.336;2023-03-01T03:56:11;95354.41;;;6.09;100.00
10706;BME280;5404;42.656;23.336;2023-03-01T03:58:56;95354.13;;;6.06;100.00
10706;BME280;5404;42.656;23.336;2023-03-01T04:01:21;95342.91;;;5.93;100.00
10706;BME280;5404;42.656;23.336;2023-03-01T04:03:48;95356.72;;;6.01;100.00
10706;BME280;5404;42.656;23.336;2023-03-01T04:06:19;95364.41;;;6.02;100.00
10706;BME280;5404;42.656;23.336;2023-03-01T04:08:45;95358.06;;;6.03;100.00
10706;BME280;5404;42.656;23.336;2023-03-01T04:11:11;95366.53;;;6.00;100.00
10706;BME280;5404;42.656;23.336;2023-03-01T04:13:53;95332.09;;;5.68;100.00
10706;BME280;5404;42.656;23.336;2023-03-01T04:16:19;95345.75;;;5.87;100.00
10706;BME280;5404;42.656;23.336;2023-03-01T04:18:45;95364.06;;;5.93;100.00
10706;BME280;5404;42.656;23.336;2023-03-01T04:21:11;95365.94;;;5.93;100.00
10706;BME280;5404;42.656;23.336;2023-03-01T04:23:37;95360.38;;;5.95;100.00
10706;BME280;5404;42.656;23.336;2023-03-01T04:26:04;95361.16;;;5.95;100.00
10706;BME280;5404;42.656;23.336;2023-03-01T04:28:35;95366.22;;;5.97;100.00
10706;BME280;5404;42.656;23.336;2023-03-01T04:31:09;95366.75;;;5.99;100.00
10706;BME280;5404;42.656;23.336;2023-03-01T04:33:46;95350.81;;;5.88;100.00
10706;BME280;5404;42.656;23.336;2023-03-01T04:36:13;95365.97;;;5.98;100.00
10706;BME280;5404;42.656;23.336;2023-03-01T04:38:40;95356.44;;;5.97;100.00
10706;BME280;5404;42.656;23.336;2023-03-01T04:41:07;95351.69;;;5.99;100.00
10706;BME280;5404;42.656;23.336;2023-03-01T04:43:34;95350.06;;;5.93;100.00
10706;BME280;5404;42.656;23.336;2023-03-01T04:46:07;95364.94;;;6.04;100.00
10706;BME280;5404;42.656;23.336;2023-03-01T04:48:35;95362.31;;;6.04;100.00
10706;BME280;5404;42.656;23.336;2023-03-01T04:51:02;95364.69;;;6.06;100.00
10706;BME280;5404;42.656;23.336;2023-03-01T04:53:29;95354.13;;;6.06;100.00
10706;BME280;5404;42.656;23.336;2023-03-01T04:55:56;95322.22;;;5.85;100.00
10706;BME280;5404;42.656;23.336;2023-03-01T04:58:26;95355.97;;;6.05;100.00
10706;BME280;5404;42.656;23.336;2023-03-01T05:00:52;95357.56;;;6.06;100.00
10706;BME280;5404;42.656;23.336;2023-03-01T05:03:19;95359.41;;;6.06;100.00
10706;BME280;5404;42.656;23.336;2023-03-01T05:05:46;95344.31;;;6.01;100.00
10706;BME280;5404;42.656;23.336;2023-03-01T05:08:13;95362.59;;;6.08;100.00
10706;BME280;5404;42.656;23.336;2023-03-01T05:10:45;95344.78;;;5.93;100.00
10706;BME280;5404;42.656;23.336;2023-03-01T05:13:12;95356.50;;;6.07;100.00
10706;BME280;5404;42.656;23.336;2023-03-01T05:15:40;95318.78;;;5.85;100.00
10706;BME280;5404;42.656;23.336;2023-03-01T05:18:05;95359.41;;;6.06;100.00
10706;BME280;5404;42.656;23.336;2023-03-01T05:20:38;95353.03;;;6.02;100.00
10706;BME280;5404;42.656;23.336;2023-03-01T05:23:04;95356.38;;;5.92;100.00
10706;BME280;5404;42.656;23.336;2023-03-01T05:25:32;95369.06;;;5.90;100.00
10706;BME280;5404;42.656;23.336;2023-03-01T05:28:00;95359.78;;;5.87;100.00
10706;BME280;5404;42.656;23.336;2023-03-01T05:30:32;95360.09;;;5.91;100.00
10706;BME280;5404;42.656;23.336;2023-03-01T05:32:58;95361.69;;;5.92;100.00
10706;BME280;5404;42.656;23.336;2023-03-01T05:35:24;95363.81;;;5.95;100.00
10706;BME280;5404;42.656;23.336;2023-03-01T05:37:50;95273.66;;;5.38;100.00
10706;BME280;5404;42.656;23.336;2023-03-01T05:40:19;95359.91;;;6.03;100.00
10706;BME280;5404;42.656;23.336;2023-03-01T05:42:49;95362.00;;;6.01;100.00
10706;BME280;5404;42.656;23.336;2023-03-01T05:45:17;95358.63;;;6.05;100.00
10706;BME280;5404;42.656;23.336;2023-03-01T05:47:44;95361.78;;;6.07;100.00
10706;BME280;5404;42.656;23.336;2023-03-01T05:52:37;95360.47;;;6.05;100.00
10706;BME280;5404;42.656;23.336;2023-03-01T05:55:04;95372.16;;;6.09;100.00
10706;BME280;5404;42.656;23.336;2023-03-01T05:57:30;95375.03;;;6.07;100.00
10706;BME280;5404;42.656;23.336;2023-03-01T05:59:55;95363.88;;;6.00;100.00
10706;BME280;5404;42.656;23.336;2023-03-01T06:02:23;95365.16;;;5.98;100.00
10706;BME280;5404;42.656;23.336;2023-03-01T06:04:49;95372.38;;;6.07;100.00
10706;BME280;5404;42.656;23.336;2023-03-01T06:07:14;95360.13;;;5.96;100.00
10706;BME280;5404;42.656;23.336;2023-03-01T06:09:39;95377.91;;;6.06;100.00
10706;BME280;5404;42.656;23.336;2023-03-01T06:12:08;95376.09;;;6.06;100.00
10706;BME280;5404;42.656;23.336;2023-03-01T06:14:33;95365.63;;;5.89;100.00
10706;BME280;5404;42.656;23.336;2023-03-01T06:16:58;95390.84;;;6.02;100.00
10706;BME280;5404;42.656;23.336;2023-03-01T06:19:24;95391.09;;;6.01;100.00
10706;BME280;5404;42.656;23.336;2023-03-01T06:21:51;95391.66;;;6.03;100.00
10706;BME280;5404;42.656;23.336;2023-03-01T06:24:17;95355.25;;;5.83;100.00
10706;BME280;5404;42.656;23.336;2023-03-01T06:26:42;95365.88;;;5.88;100.00
10706;BME280;5404;42.656;23.336;2023-03-01T06:29:07;95401.72;;;6.06;100.00
10706;BME280;5404;42.656;23.336;2023-03-01T06:31:33;95381.38;;;6.06;100.00
10706;BME280;5404;42.656;23.336;2023-03-01T06:33:59;95398.81;;;6.07;100.00
10706;BME280;5404;42.656;23.336;2023-03-01T06:36:26;95391.47;;;6.14;100.00
10706;BME280;5404;42.656;23.336;2023-03-01T06:38:51;95385.47;;;6.19;100.00
10706;BME280;5404;42.656;23.336;2023-03-01T06:41:17;95385.16;;;6.15;100.00
10706;BME280;5404;42.656;23.336;2023-03-01T06:43:42;95409.00;;;6.20;100.00
10706;BME280;5404;42.656;23.336;2023-03-01T06:46:07;95391.03;;;6.22;100.00
10706;BME280;5404;42.656;23.336;2023-03-01T06:48:33;95397.19;;;6.28;100.00
10706;BME280;5404;42.656;23.336;2023-03-01T06:51:00;95404.59;;;6.31;100.00
10706;BME280;5404;42.656;23.336;2023-03-01T06:53:29;95389.31;;;6.38;100.00
10706;BME280;5404;42.656;23.336;2023-03-01T06:55:58;95400.72;;;6.43;100.00
10706;BME280;5404;42.656;23.336;2023-03-01T06:58:25;95395.16;;;6.40;100.00
10706;BME280;5404;42.656;23.336;2023-03-01T07:00:51;95390.09;;;6.38;100.00
10706;BME280;5404;42.656;23.336;2023-03-01T07:03:17;95390.91;;;6.39;100.00
10706;BME280;5404;42.656;23.336;2023-03-01T07:05:43;95306.09;;;5.87;100.00
10706;BME280;5404;42.656;23.336;2023-03-01T07:08:09;95373.06;;;6.24;100.00
10706;BME280;5404;42.656;23.336;2023-03-01T07:10:35;95390.09;;;6.38;100.00
10706;BME280;5404;42.656;23.336;2023-03-01T07:13:00;95387.47;;;6.43;100.00
10706;BME280;5404;42.656;23.336;2023-03-01T07:15:27;95379.28;;;6.40;100.00
10706;BME280;5404;42.656;23.336;2023-03-01T07:17:54;95392.50;;;6.40;100.00
10706;BME280;5404;42.656;23.336;2023-03-01T07:20:20;95379.22;;;6.35;100.00
10706;BME280;5404;42.656;23.336;2023-03-01T07:22:55;95380.31;;;6.39;100.00
10706;BME280;5404;42.656;23.336;2023-03-01T07:25:24;95376.38;;;6.41;100.00
10706;BME280;5404;42.656;23.336;2023-03-01T07:27:51;95382.75;;;6.50;100.00
10706;BME280;5404;42.656;23.336;2023-03-01T07:30:17;95373.53;;;6.53;100.00
10706;BME280;5404;42.656;23.336;2023-03-01T07:32:43;95379.44;;;6.65;100.00
10706;BME280;5404;42.656;23.336;2023-03-01T07:35:10;95373.69;;;6.78;100.00
10706;BME280;5404;42.656;23.336;2023-03-01T07:37:35;95371.59;;;6.85;100.00
10706;BME280;5404;42.656;23.336;2023-03-01T07:40:11;95361.03;;;6.95;100.00
10706;BME280;5404;42.656;23.336;2023-03-01T07:42:37;95364.50;;;6.95;100.00
10706;BME280;5404;42.656;23.336;2023-03-01T07:45:04;95365.59;;;6.99;100.00
10706;BME280;5404;42.656;23.336;2023-03-01T07:47:30;95366.94;;;7.07;100.00
10706;BME280;5404;42.656;23.336;2023-03-01T07:49:55;95360.34;;;7.15;100.00
10706;BME280;5404;42.656;23.336;2023-03-01T07:52:21;95356.66;;;7.21;100.00
10706;BME280;5404;42.656;23.336;2023-03-01T07:54:46;95297.72;;;6.93;100.00
10706;BME280;5404;42.656;23.336;2023-03-01T07:57:12;95355.66;;;7.37;100.00
10706;BME280;5404;42.656;23.336;2023-03-01T07:59:38;95349.31;;;7.38;100.00
10706;BME280;5404;42.656;23.336;2023-03-01T08:02:03;95306.00;;;7.07;100.00
10706;BME280;5404;42.656;23.336;2023-03-01T08:04:29;95333.16;;;7.39;100.00
10706;BME280;5404;42.656;23.336;2023-03-01T08:06:58;95327.03;;;7.39;100.00
10706;BME280;5404;42.656;23.336;2023-03-01T08:09:25;95334.47;;;7.52;100.00
10706;BME280;5404;42.656;23.336;2023-03-01T08:11:51;95330.53;;;7.54;100.00
10706;BME280;5404;42.656;23.336;2023-03-01T08:14:17;95333.91;;;7.40;100.00
10706;BME280;5404;42.656;23.336;2023-03-01T08:16:43;95331.81;;;7.42;100.00
10706;BME280;5404;42.656;23.336;2023-03-01T08:19:11;95318.56;;;7.42;100.00
10706;BME280;5404;42.656;23.336;2023-03-01T08:21:37;95329.69;;;7.39;100.00
10706;BME280;5404;42.656;23.336;2023-03-01T08:24:04;95322.56;;;7.44;100.00
10706;BME280;5404;42.656;23.336;2023-03-01T08:26:31;95319.13;;;7.54;100.00
10706;BME280;5404;42.656;23.336;2023-03-01T08:28:57;95326.03;;;7.70;100.00
10706;BME280;5404;42.656;23.336;2023-03-01T08:31:24;95328.16;;;7.83;100.00
10706;BME280;5404;42.656;23.336;2023-03-01T08:33:52;95313.88;;;7.84;100.00
10706;BME280;5404;42.656;23.336;2023-03-01T08:36:30;95318.91;;;7.85;100.00
10706;BME280;5404;42.656;23.336;2023-03-01T08:38:56;95308.03;;;7.87;100.00
10706;BME280;5404;42.656;23.336;2023-03-01T08:41:21;95304.28;;;7.93;100.00
10706;BME280;5404;42.656;23.336;2023-03-01T08:43:47;95316.78;;;8.22;100.00
10706;BME280;5404;42.656;23.336;2023-03-01T08:46:12;95308.56;;;8.44;100.00
10706;BME280;5404;42.656;23.336;2023-03-01T08:48:38;95299.50;;;8.55;100.00
10706;BME280;5404;42.656;23.336;2023-03-01T08:51:11;95292.09;;;8.47;100.00
10706;BME280;5404;42.656;23.336;2023-03-01T08:53:39;95299.25;;;8.37;100.00
10706;BME280;5404;42.656;23.336;2023-03-01T08:56:05;95295.53;;;8.33;100.00
10706;BME280;5404;42.656;23.336;2023-03-01T08:58:31;95296.84;;;8.50;100.00
10706;BME280;5404;42.656;23.336;2023-03-01T09:00:57;95301.63;;;8.43;100.00
10706;BME280;5404;42.656;23.336;2023-03-01T09:03:24;95297.41;;;8.37;100.00
10706;BME280;5404;42.656;23.336;2023-03-01T09:05:49;95199.00;;;7.68;100.00
10706;BME280;5404;42.656;23.336;2023-03-01T09:08:17;95302.19;;;8.35;100.00
10706;BME280;5404;42.656;23.336;2023-03-01T09:10:45;95295.28;;;8.49;100.00
10706;BME280;5404;42.656;23.336;2023-03-01T09:13:10;95300.03;;;8.52;100.00
10706;BME280;5404;42.656;23.336;2023-03-01T09:15:39;95299.47;;;8.60;100.00
10706;BME280;5404;42.656;23.336;2023-03-01T09:18:05;95272.41;;;8.53;100.00
10706;BME280;5404;42.656;23.336;2023-03-01T09:20:31;95301.53;;;8.83;100.00
10706;BME280;5404;42.656;23.336;2023-03-01T09:22:58;95259.09;;;8.68;100.00
10706;BME280;5404;42.656;23.336;2023-03-01T09:25:24;95290.03;;;9.03;100.00
10706;BME280;5404;42.656;23.336;2023-03-01T09:27:52;95282.06;;;9.03;100.00
10706;BME280;5404;42.656;23.336;2023-03-01T09:30:20;95286.91;;;8.86;100.00
10706;BME280;5404;42.656;23.336;2023-03-01T09:32:46;95286.69;;;8.72;100.00
10706;BME280;5404;42.656;23.336;2023-03-01T09:35:12;95294.63;;;8.87;100.00
10706;BME280;5404;42.656;23.336;2023-03-01T09:37:38;95265.44;;;8.72;100.00
10706;BME280;5404;42.656;23.336;2023-03-01T09:40:13;95284.59;;;8.69;100.00
10706;BME280;5404;42.656;23.336;2023-03-01T09:42:52;95274.00;;;8.54;100.00
10706;BME280;5404;42.656;23.336;2023-03-01T09:45:32;95270.59;;;8.39;100.00
10706;BME280;5404;42.656;23.336;2023-03-01T09:48:00;95281.22;;;8.34;100.00
10706;BME280;5404;42.656;23.336;2023-03-01T09:50:28;95275.91;;;8.34;100.00
10706;BME280;5404;42.656;23.336;2023-03-01T09:53:04;95278.78;;;8.57;100.00
10706;BME280;5404;42.656;23.336;2023-03-01T10:01:27;95266.22;;;8.78;100.00
10706;BME280;5404;42.656;23.336;2023-03-01T10:06:52;95232.06;;;8.46;100.00
10706;BME280;5404;42.656;23.336;2023-03-01T10:09:22;95266.53;;;8.66;100.00
10706;BME280;5404;42.656;23.336;2023-03-01T10:11:50;95251.41;;;8.62;100.00
10706;BME280;5404;42.656;23.336;2023-03-01T10:14:34;95251.69;;;8.50;100.00
10706;BME280;5404;42.656;23.336;2023-03-01T10:17:19;95262.34;;;8.45;100.00
10706;BME280;5404;42.656;23.336;2023-03-01T10:19:49;95254.38;;;8.45;100.00
10706;BME280;5404;42.656;23.336;2023-03-01T10:22:28;95260.19;;;8.57;100.00
10706;BME280;5404;42.656;23.336;2023-03-01T10:24:57;95254.59;;;8.64;100.00
10706;BME280;5404;42.656;23.336;2023-03-01T10:27:32;95246.09;;;8.67;100.00
10706;BME280;5404;42.656;23.336;2023-03-01T10:30:20;95247.69;;;8.63;100.00
10706;BME280;5404;42.656;23.336;2023-03-01T10:32:49;95233.38;;;8.54;100.00
10706;BME280;5404;42.656;23.336;2023-03-01T10:35:24;95244.25;;;8.57;100.00
10706;BME280;5404;42.656;23.336;2023-03-01T10:38:07;95239.25;;;8.46;100.00
10706;BME280;5404;42.656;23.336;2023-03-01T10:40:35;95238.16;;;8.47;100.00
10706;BME280;5404;42.656;23.336;2023-03-01T10:43:03;95232.84;;;8.52;100.00
10706;BME280;5404;42.656;23.336;2023-03-01T10:48:16;95227.44;;;8.77;100.00
10706;BME280;5404;42.656;23.336;2023-03-01T10:50:44;95231.91;;;8.86;100.00
10706;BME280;5404;42.656;23.336;2023-03-01T10:56:05;95227.56;;;9.05;100.00
10706;BME280;5404;42.656;23.336;2023-03-01T10:58:32;95221.84;;;9.27;100.00
10706;BME280;5404;42.656;23.336;2023-03-01T11:01:01;95226.38;;;9.65;100.00
10706;BME280;5404;42.656;23.336;2023-03-01T11:03:34;95219.22;;;9.94;100.00
10706;BME280;5404;42.656;23.336;2023-03-01T11:08:43;95204.03;;;9.95;100.00
10706;BME280;5404;42.656;23.336;2023-03-01T11:16:37;95195.09;;;9.52;100.00
10706;BME280;5404;42.656;23.336;2023-03-01T11:21:37;95223.69;;;9.31;100.00
10706;BME280;5404;42.656;23.336;2023-03-01T11:24:08;95214.44;;;9.24;100.00
10706;BME280;5404;42.656;23.336;2023-03-01T11:26:40;95216.28;;;9.28;100.00
10706;BME280;5404;42.656;23.336;2023-03-01T11:29:21;95213.19;;;9.11;100.00
10706;BME280;5404;42.656;23.336;2023-03-01T11:31:51;95222.06;;;8.92;100.00
10706;BME280;5404;42.656;23.336;2023-03-01T11:34:24;95222.63;;;8.84;100.00
10706;BME280;5404;42.656;23.336;2023-03-01T11:36:58;95202.50;;;8.68;100.00
10706;BME280;5404;42.656;23.336;2023-03-01T11:39:31;95220.22;;;8.92;100.00
10706;BME280;5404;42.656;23.336;2023-03-01T11:42:10;95213.25;;;8.96;100.00
10706;BME280;5404;42.656;23.336;2023-03-01T11:44:37;95213.75;;;9.03;100.00
10706;BME280;5404;42.656;23.336;2023-03-01T11:50:46;95198.91;;;8.97;100.00
10706;BME280;5404;42.656;23.336;2023-03-01T12:02:14;95187.63;;;9.15;100.00
10706;BME280;5404;42.656;23.336;2023-03-01T12:07:24;95188.72;;;9.14;100.00
10706;BME280;5404;42.656;23.336;2023-03-01T12:10:28;95178.28;;;9.23;100.00
10706;BME280;5404;42.656;23.336;2023-03-01T12:16:07;95172.97;;;9.57;100.00
10706;BME280;5404;42.656;23.336;2023-03-01T12:19:26;95169.06;;;9.78;100.00
10706;BME280;5404;42.656;23.336;2023-03-01T12:22:31;95158.28;;;10.21;100.00
10706;BME280;5404;42.656;23.336;2023-03-01T12:25:06;95156.56;;;10.30;100.00
10706;BME280;5404;42.656;23.336;2023-03-01T12:33:52;95153.69;;;9.75;100.00
10706;BME280;5404;42.656;23.336;2023-03-01T12:38:50;95146.03;;;9.68;100.00
10706;BME280;5404;42.656;23.336;2023-03-01T12:50:11;95143.84;;;9.70;100.00
10706;BME280;5404;42.656;23.336;2023-03-01T12:52:44;95134.44;;;9.54;100.00
10706;BME280;5404;42.656;23.336;2023-03-01T12:55:39;95139.19;;;9.57;100.00
10706;BME280;5404;42.656;23.336;2023-03-01T12:58:26;95138.34;;;9.62;100.00
10706;BME280;5404;42.656;23.336;2023-03-01T13:01:31;95139.38;;;9.66;100.00
10706;BME280;5404;42.656;23.336;2023-03-01T13:06:55;95136.22;;;9.87;100.00
10706;BME280;5404;42.656;23.336;2023-03-01T13:17:53;95141.97;;;9.99;100.00
10706;BME280;5404;42.656;23.336;2023-03-01T13:20:21;95141.91;;;9.81;100.00
10706;BME280;5404;42.656;23.336;2023-03-01T13:23:00;95140.97;;;9.67;100.00
10706;BME280;5404;42.656;23.336;2023-03-01T13:25:26;95144.47;;;9.62;100.00
10706;BME280;5404;42.656;23.336;2023-03-01T13:30:56;95135.38;;;9.68;100.00
10706;BME280;5404;42.656;23.336;2023-03-01T13:35:57;95131.31;;;8.70;100.00
10706;BME280;5404;42.656;23.336;2023-03-01T13:38:58;95159.50;;;9.09;100.00
10706;BME280;5404;42.656;23.336;2023-03-01T13:49:56;95155.03;;;9.38;100.00
10706;BME280;5404;42.656;23.336;2023-03-01T13:52:45;95153.25;;;9.29;100.00
10706;BME280;5404;42.656;23.336;2023-03-01T13:55:24;95108.34;;;8.89;100.00
10706;BME280;5404;42.656;23.336;2023-03-01T13:57:55;95166.28;;;9.25;100.00
10706;BME280;5404;42.656;23.336;2023-03-01T14:03:15;95142.69;;;9.53;100.00
10706;BME280;5404;42.656;23.336;2023-03-01T14:05:50;95141.56;;;9.59;100.00
10706;BME280;5404;42.656;23.336;2023-03-01T14:08:25;95147.69;;;9.59;100.00
10706;BME280;5404;42.656;23.336;2023-03-01T14:11:04;95148.50;;;9.55;100.00
10706;BME280;5404;42.656;23.336;2023-03-01T14:19:23;95154.66;;;9.21;100.00
10706;BME280;5404;42.656;23.336;2023-03-01T14:24:30;95148.19;;;9.27;100.00
10706;BME280;5404;42.656;23.336;2023-03-01T14:27:01;95147.09;;;9.33;100.00
10706;BME280;5404;42.656;23.336;2023-03-01T14:29:34;95141.88;;;9.18;100.00
10706;BME280;5404;42.656;23.336;2023-03-01T14:32:30;95143.53;;;9.14;100.00
10706;BME280;5404;42.656;23.336;2023-03-01T14:34:59;95139.34;;;9.03;100.00
10706;BME280;5404;42.656;23.336;2023-03-01T14:37:33;95158.03;;;8.88;100.00
10706;BME280;5404;42.656;23.336;2023-03-01T14:40:03;95151.16;;;8.82;100.00
10706;BME280;5404;42.656;23.336;2023-03-01T14:42:34;95150.09;;;8.83;100.00
10706;BME280;5404;42.656;23.336;2023-03-01T14:45:03;95117.56;;;8.58;100.00
10706;BME280;5404;42.656;23.336;2023-03-01T14:47:33;95157.56;;;8.76;100.00
10706;BME280;5404;42.656;23.336;2023-03-01T14:50:09;95160.75;;;8.78;100.00
10706;BME280;5404;42.656;23.336;2023-03-01T14:52:42;95157.34;;;8.68;100.00
10706;BME280;5404;42.656;23.336;2023-03-01T14:55:22;95151.75;;;8.74;100.00
10706;BME280;5404;42.656;23.336;2023-03-01T14:57:51;95146.22;;;8.66;100.00
10706;BME280;5404;42.656;23.336;2023-03-01T15:00:26;95151.00;;;8.59;100.00
10706;BME280;5404;42.656;23.336;2023-03-01T15:02:55;95153.72;;;8.49;100.00